Aviation Digital Data Service (ADDS)

Output produced by METARs form (0840 UTC 24 March 2019)
found at http://www.aviationweather.gov/metar/data/
 
Forecast for: LFBD (BORDEAUX/MERIGNA, FR)
Text: TAF LFBD 240500Z 2406/2512 02005KT CAVOK TX21/2415Z TN05/2406Z
Forecast period: 0600 UTC 24 March 2019 to 1200 UTC 25 March 2019
Forecast type: FROM: standard forecast or significant change
Winds: from the NNE (20 degrees) at 6 MPH (5 knots; 2.6 m/s)
Visibility: 6 or more miles 10+ km)
Ceiling: unknown
Clouds: missing
Weather: no significant weather forecast for this period